sensor_id;sensor_type;location;lat;lon;timestamp;temperature;humidity
17170;DHT22;8700;48.222;16.342;2023-11-21T00:00:19;11.20;99.90
17170;DHT22;8700;48.222;16.342;2023-11-21T00:03:40;11.20;99.90
17170;DHT22;8700;48.222;16.342;2023-11-21T00:07:01;11.10;99.90
17170;DHT22;8700;48.222;16.342;2023-11-21T00:10:23;11.10;99.90
17170;DHT22;8700;48.222;16.342;2023-11-21T00:13:44;11.10;99.90
17170;DHT22;8700;48.222;16.342;2023-11-21T00:17:06;11.20;99.90
17170;DHT22;8700;48.222;16.342;2023-11-21T00:20:27;11.20;99.90
17170;DHT22;8700;48.222;16.342;2023-11-21T00:23:48;11.20;99.90
17170;DHT22;8700;48.222;16.342;2023-11-21T00:27:10;10.90;99.90
17170;DHT22;8700;48.222;16.342;2023-11-21T00:30:32;10.80;99.90
17170;DHT22;8700;48.222;16.342;2023-11-21T00:33:53;10.80;99.90
17170;DHT22;8700;48.222;16.342;2023-11-21T00:37:14;11.00;99.90
17170;DHT22;8700;48.222;16.342;2023-11-21T00:40:35;10.90;99.90
17170;DHT22;8700;48.222;16.342;2023-11-21T00:43:58;10.80;99.90
17170;DHT22;8700;48.222;16.342;2023-11-21T00:47:20;10.80;99.90
17170;DHT22;8700;48.222;16.342;2023-11-21T00:50:42;10.70;99.90
17170;DHT22;8700;48.222;16.342;2023-11-21T00:54:04;10.80;99.90
17170;DHT22;8700;48.222;16.342;2023-11-21T00:57:26;10.80;99.90
17170;DHT22;8700;48.222;16.342;2023-11-21T01:00:49;10.80;99.90
17170;DHT22;8700;48.222;16.342;2023-11-21T01:04:10;10.80;99.90
17170;DHT22;8700;48.222;16.342;2023-11-21T01:07:31;10.70;99.90
17170;DHT22;8700;48.222;16.342;2023-11-21T01:10:52;10.70;99.90
17170;DHT22;8700;48.222;16.342;2023-11-21T01:14:14;10.70;99.90
17170;DHT22;8700;48.222;16.342;2023-11-21T01:17:36;10.70;99.90
17170;DHT22;8700;48.222;16.342;2023-11-21T01:20:58;10.50;99.90
17170;DHT22;8700;48.222;16.342;2023-11-21T01:24:20;10.40;99.90
17170;DHT22;8700;48.222;16.342;2023-11-21T01:27:41;10.30;99.90
17170;DHT22;8700;48.222;16.342;2023-11-21T01:31:02;10.40;99.90
17170;DHT22;8700;48.222;16.342;2023-11-21T01:34:24;10.40;99.90
17170;DHT22;8700;48.222;16.342;2023-11-21T01:37:46;10.40;99.90
17170;DHT22;8700;48.222;16.342;2023-11-21T01:41:08;10.50;99.90
17170;DHT22;8700;48.222;16.342;2023-11-21T01:44:30;10.50;99.90
17170;DHT22;8700;48.222;16.342;2023-11-21T01:47:52;10.50;99.90
17170;DHT22;8700;48.222;16.342;2023-11-21T01:51:14;10.60;99.90
17170;DHT22;8700;48.222;16.342;2023-11-21T01:54:36;10.50;99.90
17170;DHT22;8700;48.222;16.342;2023-11-21T01:57:58;10.40;99.90
17170;DHT22;8700;48.222;16.342;2023-11-21T02:01:19;10.40;99.90
17170;DHT22;8700;48.222;16.342;2023-11-21T02:04:40;10.50;99.90
17170;DHT22;8700;48.222;16.342;2023-11-21T02:08:03;10.50;99.90
17170;DHT22;8700;48.222;16.342;2023-11-21T02:11:24;10.70;99.90
17170;DHT22;8700;48.222;16.342;2023-11-21T02:14:45;10.80;99.90
17170;DHT22;8700;48.222;16.342;2023-11-21T02:18:08;10.60;99.90
17170;DHT22;8700;48.222;16.342;2023-11-21T02:21:31;10.50;99.90
17170;DHT22;8700;48.222;16.342;2023-11-21T02:24:53;10.40;99.90
17170;DHT22;8700;48.222;16.342;2023-11-21T02:28:14;10.40;99.90
17170;DHT22;8700;48.222;16.342;2023-11-21T02:31:45;10.50;99.90
17170;DHT22;8700;48.222;16.342;2023-11-21T02:35:08;10.70;99.90
17170;DHT22;8700;48.222;16.342;2023-11-21T02:38:31;10.90;99.90
17170;DHT22;8700;48.222;16.342;2023-11-21T02:41:54;10.90;99.90
17170;DHT22;8700;48.222;16.342;2023-11-21T02:45:15;10.80;99.90
17170;DHT22;8700;48.222;16.342;2023-11-21T02:48:37;10.80;99.90
17170;DHT22;8700;48.222;16.342;2023-11-21T02:51:58;10.80;99.90
17170;DHT22;8700;48.222;16.342;2023-11-21T02:55:19;10.80;99.90
17170;DHT22;8700;48.222;16.342;2023-11-21T02:58:43;10.70;99.90
17170;DHT22;8700;48.222;16.342;2023-11-21T03:02:04;10.60;99.90
17170;DHT22;8700;48.222;16.342;2023-11-21T03:05:28;10.60;99.90
17170;DHT22;8700;48.222;16.342;2023-11-21T03:08:49;10.60;99.90
17170;DHT22;8700;48.222;16.342;2023-11-21T03:12:10;10.60;99.90
17170;DHT22;8700;48.222;16.342;2023-11-21T03:15:33;10.60;99.90
17170;DHT22;8700;48.222;16.342;2023-11-21T03:18:55;10.40;99.90
17170;DHT22;8700;48.222;16.342;2023-11-21T03:22:16;10.40;99.90
17170;DHT22;8700;48.222;16.342;2023-11-21T03:25:38;10.30;99.90
17170;DHT22;8700;48.222;16.342;2023-11-21T03:28:59;10.30;99.90
17170;DHT22;8700;48.222;16.342;2023-11-21T03:32:22;10.30;99.90
17170;DHT22;8700;48.222;16.342;2023-11-21T03:35:43;10.30;99.90
17170;DHT22;8700;48.222;16.342;2023-11-21T03:39:04;10.20;99.90
17170;DHT22;8700;48.222;16.342;2023-11-21T03:42:26;10.20;99.90
17170;DHT22;8700;48.222;16.342;2023-11-21T03:45:47;10.20;99.90
17170;DHT22;8700;48.222;16.342;2023-11-21T03:49:10;10.10;99.90
17170;DHT22;8700;48.222;16.342;2023-11-21T03:52:31;10.10;99.90
17170;DHT22;8700;48.222;16.342;2023-11-21T03:55:52;10.10;99.90
17170;DHT22;8700;48.222;16.342;2023-11-21T03:59:13;10.20;99.90
17170;DHT22;8700;48.222;16.342;2023-11-21T04:02:34;10.30;99.90
17170;DHT22;8700;48.222;16.342;2023-11-21T04:05:57;10.40;99.90
17170;DHT22;8700;48.222;16.342;2023-11-21T04:09:18;10.40;99.90
17170;DHT22;8700;48.222;16.342;2023-11-21T04:12:39;10.50;99.90
17170;DHT22;8700;48.222;16.342;2023-11-21T04:16:00;10.40;99.90
17170;DHT22;8700;48.222;16.342;2023-11-21T04:19:23;10.30;99.90
17170;DHT22;8700;48.222;16.342;2023-11-21T04:22:45;10.20;99.90
17170;DHT22;8700;48.222;16.342;2023-11-21T04:26:07;10.10;99.90
17170;DHT22;8700;48.222;16.342;2023-11-21T04:29:28;10.10;99.90
17170;DHT22;8700;48.222;16.342;2023-11-21T04:32:49;10.20;99.90
17170;DHT22;8700;48.222;16.342;2023-11-21T04:36:11;10.30;99.90
17170;DHT22;8700;48.222;16.342;2023-11-21T04:39:34;10.30;99.90
17170;DHT22;8700;48.222;16.342;2023-11-21T04:42:55;10.40;99.90
17170;DHT22;8700;48.222;16.342;2023-11-21T04:46:16;10.40;99.90
17170;DHT22;8700;48.222;16.342;2023-11-21T04:49:43;10.40;99.90
17170;DHT22;8700;48.222;16.342;2023-11-21T04:53:04;10.40;99.90
17170;DHT22;8700;48.222;16.342;2023-11-21T04:56:26;10.30;99.90
17170;DHT22;8700;48.222;16.342;2023-11-21T04:59:48;10.30;99.90
17170;DHT22;8700;48.222;16.342;2023-11-21T05:03:09;10.10;99.90
17170;DHT22;8700;48.222;16.342;2023-11-21T05:06:30;10.00;99.90
17170;DHT22;8700;48.222;16.342;2023-11-21T05:09:52;10.00;99.90
17170;DHT22;8700;48.222;16.342;2023-11-21T05:13:15;10.00;99.90
17170;DHT22;8700;48.222;16.342;2023-11-21T05:16:37;10.10;99.90
17170;DHT22;8700;48.222;16.342;2023-11-21T05:19:58;10.30;99.90
17170;DHT22;8700;48.222;16.342;2023-11-21T05:23:20;10.30;99.90
17170;DHT22;8700;48.222;16.342;2023-11-21T05:26:44;10.40;99.90
17170;DHT22;8700;48.222;16.342;2023-11-21T05:30:07;10.40;99.90
17170;DHT22;8700;48.222;16.342;2023-11-21T05:33:31;10.40;99.90
17170;DHT22;8700;48.222;16.342;2023-11-21T05:36:54;10.40;99.90
17170;DHT22;8700;48.222;16.342;2023-11-21T05:40:17;10.30;99.90
17170;DHT22;8700;48.222;16.342;2023-11-21T05:43:38;10.20;99.90
17170;DHT22;8700;48.222;16.342;2023-11-21T05:47:00;10.10;99.90
17170;DHT22;8700;48.222;16.342;2023-11-21T05:50:21;10.10;99.90
17170;DHT22;8700;48.222;16.342;2023-11-21T05:53:42;10.10;99.90
17170;DHT22;8700;48.222;16.342;2023-11-21T05:57:04;10.10;99.90
17170;DHT22;8700;48.222;16.342;2023-11-21T06:00:25;9.90;99.90
17170;DHT22;8700;48.222;16.342;2023-11-21T06:03:49;9.80;99.90
17170;DHT22;8700;48.222;16.342;2023-11-21T06:07:10;9.70;99.90
17170;DHT22;8700;48.222;16.342;2023-11-21T06:10:31;9.70;99.90
17170;DHT22;8700;48.222;16.342;2023-11-21T06:13:52;9.70;99.90
17170;DHT22;8700;48.222;16.342;2023-11-21T06:17:14;9.80;99.90
17170;DHT22;8700;48.222;16.342;2023-11-21T06:20:36;9.70;99.90
17170;DHT22;8700;48.222;16.342;2023-11-21T06:23:58;9.80;99.90
17170;DHT22;8700;48.222;16.342;2023-11-21T06:27:19;9.80;99.90
17170;DHT22;8700;48.222;16.342;2023-11-21T06:30:40;9.70;99.90
17170;DHT22;8700;48.222;16.342;2023-11-21T06:34:02;9.80;99.90
17170;DHT22;8700;48.222;16.342;2023-11-21T06:37:25;9.90;99.90
17170;DHT22;8700;48.222;16.342;2023-11-21T06:40:46;10.00;99.90
17170;DHT22;8700;48.222;16.342;2023-11-21T06:44:07;10.00;99.90
17170;DHT22;8700;48.222;16.342;2023-11-21T06:47:28;10.10;99.90
17170;DHT22;8700;48.222;16.342;2023-11-21T06:50:50;10.20;99.90
17170;DHT22;8700;48.222;16.342;2023-11-21T06:54:13;10.30;99.90
17170;DHT22;8700;48.222;16.342;2023-11-21T06:57:34;10.30;99.90
17170;DHT22;8700;48.222;16.342;2023-11-21T07:00:55;10.30;99.90
17170;DHT22;8700;48.222;16.342;2023-11-21T07:04:18;10.40;99.90
17170;DHT22;8700;48.222;16.342;2023-11-21T07:07:39;10.40;99.90
17170;DHT22;8700;48.222;16.342;2023-11-21T07:11:02;10.50;99.90
17170;DHT22;8700;48.222;16.342;2023-11-21T07:14:23;10.70;99.90
17170;DHT22;8700;48.222;16.342;2023-11-21T07:17:45;10.70;99.90
17170;DHT22;8700;48.222;16.342;2023-11-21T07:21:06;10.80;99.90
17170;DHT22;8700;48.222;16.342;2023-11-21T07:24:28;10.70;99.90
17170;DHT22;8700;48.222;16.342;2023-11-21T07:27:52;10.60;99.90
17170;DHT22;8700;48.222;16.342;2023-11-21T07:31:15;10.60;99.90
17170;DHT22;8700;48.222;16.342;2023-11-21T07:34:36;10.70;99.90
17170;DHT22;8700;48.222;16.342;2023-11-21T07:37:57;10.80;99.90
17170;DHT22;8700;48.222;16.342;2023-11-21T07:41:18;10.70;99.90
17170;DHT22;8700;48.222;16.342;2023-11-21T07:44:42;10.70;99.90
17170;DHT22;8700;48.222;16.342;2023-11-21T07:48:03;10.70;99.90
17170;DHT22;8700;48.222;16.342;2023-11-21T07:51:25;10.70;99.90
17170;DHT22;8700;48.222;16.342;2023-11-21T07:54:45;10.80;99.90
17170;DHT22;8700;48.222;16.342;2023-11-21T07:58:07;11.00;99.90
17170;DHT22;8700;48.222;16.342;2023-11-21T08:01:29;11.20;99.90
17170;DHT22;8700;48.222;16.342;2023-11-21T08:04:51;11.40;99.90
17170;DHT22;8700;48.222;16.342;2023-11-21T08:08:12;11.50;99.90
17170;DHT22;8700;48.222;16.342;2023-11-21T08:11:33;11.60;99.90
17170;DHT22;8700;48.222;16.342;2023-11-21T08:14:54;11.60;99.90
17170;DHT22;8700;48.222;16.342;2023-11-21T08:18:17;11.40;99.90
17170;DHT22;8700;48.222;16.342;2023-11-21T08:21:38;11.30;99.90
17170;DHT22;8700;48.222;16.342;2023-11-21T08:25:00;11.40;99.90
17170;DHT22;8700;48.222;16.342;2023-11-21T08:28:23;11.50;99.90
17170;DHT22;8700;48.222;16.342;2023-11-21T08:31:45;11.60;99.90
17170;DHT22;8700;48.222;16.342;2023-11-21T08:35:10;11.90;99.90
17170;DHT22;8700;48.222;16.342;2023-11-21T08:38:32;12.30;99.90
17170;DHT22;8700;48.222;16.342;2023-11-21T08:41:57;12.30;99.90
17170;DHT22;8700;48.222;16.342;2023-11-21T08:45:18;12.20;99.90
17170;DHT22;8700;48.222;16.342;2023-11-21T08:48:41;12.10;99.90
17170;DHT22;8700;48.222;16.342;2023-11-21T08:52:05;12.00;99.90
17170;DHT22;8700;48.222;16.342;2023-11-21T08:55:26;12.10;99.90
17170;DHT22;8700;48.222;16.342;2023-11-21T08:58:48;12.20;99.90
17170;DHT22;8700;48.222;16.342;2023-11-21T09:02:10;12.40;99.90
17170;DHT22;8700;48.222;16.342;2023-11-21T09:05:31;12.80;99.90
17170;DHT22;8700;48.222;16.342;2023-11-21T09:08:54;13.10;99.90
17170;DHT22;8700;48.222;16.342;2023-11-21T09:12:15;13.30;99.90
17170;DHT22;8700;48.222;16.342;2023-11-21T09:15:36;13.50;99.90
17170;DHT22;8700;48.222;16.342;2023-11-21T09:18:58;13.80;99.90
17170;DHT22;8700;48.222;16.342;2023-11-21T09:22:19;14.10;99.90
17170;DHT22;8700;48.222;16.342;2023-11-21T09:25:42;14.40;99.90
17170;DHT22;8700;48.222;16.342;2023-11-21T09:29:05;14.30;99.90
17170;DHT22;8700;48.222;16.342;2023-11-21T09:32:28;14.10;99.90
17170;DHT22;8700;48.222;16.342;2023-11-21T09:35:49;14.10;99.90
17170;DHT22;8700;48.222;16.342;2023-11-21T09:39:11;14.10;99.90
17170;DHT22;8700;48.222;16.342;2023-11-21T09:42:38;14.40;99.90
17170;DHT22;8700;48.222;16.342;2023-11-21T09:46:02;14.40;99.90
17170;DHT22;8700;48.222;16.342;2023-11-21T09:49:26;14.40;99.90
17170;DHT22;8700;48.222;16.342;2023-11-21T09:52:57;14.40;99.90
17170;DHT22;8700;48.222;16.342;2023-11-21T09:56:20;14.40;99.90
17170;DHT22;8700;48.222;16.342;2023-11-21T09:59:45;15.10;99.90
17170;DHT22;8700;48.222;16.342;2023-11-21T10:03:08;15.30;99.90
17170;DHT22;8700;48.222;16.342;2023-11-21T10:06:30;15.40;99.90
17170;DHT22;8700;48.222;16.342;2023-11-21T10:09:53;15.30;99.90
17170;DHT22;8700;48.222;16.342;2023-11-21T10:13:14;15.40;99.90
17170;DHT22;8700;48.222;16.342;2023-11-21T10:16:39;15.00;99.90
17170;DHT22;8700;48.222;16.342;2023-11-21T10:20:00;14.90;99.90
17170;DHT22;8700;48.222;16.342;2023-11-21T10:23:22;14.60;99.90
17170;DHT22;8700;48.222;16.342;2023-11-21T10:26:43;14.80;99.90
17170;DHT22;8700;48.222;16.342;2023-11-21T10:30:09;14.40;99.90
17170;DHT22;8700;48.222;16.342;2023-11-21T10:33:33;14.10;99.90
17170;DHT22;8700;48.222;16.342;2023-11-21T10:36:54;14.50;99.90
17170;DHT22;8700;48.222;16.342;2023-11-21T10:40:17;14.20;99.90
17170;DHT22;8700;48.222;16.342;2023-11-21T10:43:39;14.30;99.90
17170;DHT22;8700;48.222;16.342;2023-11-21T10:47:00;14.50;99.90
17170;DHT22;8700;48.222;16.342;2023-11-21T10:50:23;13.80;99.90
17170;DHT22;8700;48.222;16.342;2023-11-21T10:53:45;13.70;99.90
17170;DHT22;8700;48.222;16.342;2023-11-21T10:57:07;13.90;99.90
17170;DHT22;8700;48.222;16.342;2023-11-21T11:00:28;14.00;99.90
17170;DHT22;8700;48.222;16.342;2023-11-21T11:03:50;14.20;99.90
17170;DHT22;8700;48.222;16.342;2023-11-21T11:07:16;14.20;99.90
17170;DHT22;8700;48.222;16.342;2023-11-21T11:10:37;14.30;99.90
17170;DHT22;8700;48.222;16.342;2023-11-21T11:13:59;14.40;99.90
17170;DHT22;8700;48.222;16.342;2023-11-21T11:17:20;14.80;99.90
17170;DHT22;8700;48.222;16.342;2023-11-21T11:20:43;15.00;99.90
17170;DHT22;8700;48.222;16.342;2023-11-21T11:24:20;15.10;99.90
17170;DHT22;8700;48.222;16.342;2023-11-21T11:27:54;15.00;99.90
17170;DHT22;8700;48.222;16.342;2023-11-21T11:31:24;14.80;99.90
17170;DHT22;8700;48.222;16.342;2023-11-21T11:34:56;14.70;99.90
17170;DHT22;8700;48.222;16.342;2023-11-21T11:38:21;14.70;99.90
17170;DHT22;8700;48.222;16.342;2023-11-21T11:41:44;14.80;99.90
17170;DHT22;8700;48.222;16.342;2023-11-21T11:45:17;14.90;99.90
17170;DHT22;8700;48.222;16.342;2023-11-21T11:48:40;15.10;99.90
17170;DHT22;8700;48.222;16.342;2023-11-21T11:52:34;14.80;99.90
17170;DHT22;8700;48.222;16.342;2023-11-21T11:55:58;14.50;99.90
17170;DHT22;8700;48.222;16.342;2023-11-21T12:00:11;14.10;99.90
17170;DHT22;8700;48.222;16.342;2023-11-21T12:03:36;14.00;99.90
17170;DHT22;8700;48.222;16.342;2023-11-21T12:06:59;13.90;99.90
17170;DHT22;8700;48.222;16.342;2023-11-21T12:10:24;13.70;99.90
17170;DHT22;8700;48.222;16.342;2023-11-21T12:13:45;13.60;99.90
17170;DHT22;8700;48.222;16.342;2023-11-21T12:17:09;13.60;99.90
17170;DHT22;8700;48.222;16.342;2023-11-21T12:20:30;13.60;99.90
17170;DHT22;8700;48.222;16.342;2023-11-21T12:23:52;13.60;99.90
17170;DHT22;8700;48.222;16.342;2023-11-21T12:27:13;13.70;99.90
17170;DHT22;8700;48.222;16.342;2023-11-21T12:30:35;13.70;99.90
17170;DHT22;8700;48.222;16.342;2023-11-21T12:33:59;13.60;99.90
17170;DHT22;8700;48.222;16.342;2023-11-21T12:37:20;13.60;99.90
17170;DHT22;8700;48.222;16.342;2023-11-21T12:40:41;13.50;99.90
17170;DHT22;8700;48.222;16.342;2023-11-21T12:44:04;13.50;99.90
17170;DHT22;8700;48.222;16.342;2023-11-21T12:47:30;13.60;99.90
17170;DHT22;8700;48.222;16.342;2023-11-21T12:50:53;13.50;99.90
17170;DHT22;8700;48.222;16.342;2023-11-21T12:54:15;13.50;99.90
17170;DHT22;8700;48.222;16.342;2023-11-21T12:57:37;13.40;99.90
17170;DHT22;8700;48.222;16.342;2023-11-21T13:01:02;13.30;99.90
17170;DHT22;8700;48.222;16.342;2023-11-21T13:04:30;13.30;99.90
17170;DHT22;8700;48.222;16.342;2023-11-21T13:07:53;13.40;99.90
17170;DHT22;8700;48.222;16.342;2023-11-21T13:11:17;13.30;99.90
17170;DHT22;8700;48.222;16.342;2023-11-21T13:14:40;13.10;99.90
17170;DHT22;8700;48.222;16.342;2023-11-21T13:18:01;13.10;99.90
17170;DHT22;8700;48.222;16.342;2023-11-21T13:21:22;13.10;99.90
17170;DHT22;8700;48.222;16.342;2023-11-21T13:24:45;13.30;99.90
17170;DHT22;8700;48.222;16.342;2023-11-21T13:28:07;13.30;99.90
17170;DHT22;8700;48.222;16.342;2023-11-21T13:31:29;13.10;99.90
17170;DHT22;8700;48.222;16.342;2023-11-21T13:34:52;12.80;99.90
17170;DHT22;8700;48.222;16.342;2023-11-21T13:38:15;12.60;99.90
17170;DHT22;8700;48.222;16.342;2023-11-21T13:41:38;12.90;99.90
17170;DHT22;8700;48.222;16.342;2023-11-21T13:44:59;13.10;99.90
17170;DHT22;8700;48.222;16.342;2023-11-21T13:48:20;13.30;99.90
17170;DHT22;8700;48.222;16.342;2023-11-21T13:51:48;13.20;99.90
17170;DHT22;8700;48.222;16.342;2023-11-21T13:55:13;13.10;99.90
17170;DHT22;8700;48.222;16.342;2023-11-21T13:58:37;13.00;99.90
17170;DHT22;8700;48.222;16.342;2023-11-21T14:02:04;13.00;99.90
17170;DHT22;8700;48.222;16.342;2023-11-21T14:05:37;12.90;99.90
17170;DHT22;8700;48.222;16.342;2023-11-21T14:08:58;12.80;99.90
17170;DHT22;8700;48.222;16.342;2023-11-21T14:12:25;12.70;99.90
17170;DHT22;8700;48.222;16.342;2023-11-21T14:15:47;12.80;99.90
17170;DHT22;8700;48.222;16.342;2023-11-21T14:19:10;12.70;99.90
17170;DHT22;8700;48.222;16.342;2023-11-21T14:22:35;12.50;99.90
17170;DHT22;8700;48.222;16.342;2023-11-21T14:25:57;12.50;99.90
17170;DHT22;8700;48.222;16.342;2023-11-21T14:29:18;12.50;99.90
17170;DHT22;8700;48.222;16.342;2023-11-21T14:32:44;12.40;99.90
17170;DHT22;8700;48.222;16.342;2023-11-21T14:36:07;12.40;99.90
17170;DHT22;8700;48.222;16.342;2023-11-21T14:39:30;12.40;99.90
17170;DHT22;8700;48.222;16.342;2023-11-21T14:42:54;12.40;99.90
17170;DHT22;8700;48.222;16.342;2023-11-21T14:46:17;12.50;99.90
17170;DHT22;8700;48.222;16.342;2023-11-21T14:49:41;12.40;99.90
17170;DHT22;8700;48.222;16.342;2023-11-21T14:53:12;12.40;99.90
17170;DHT22;8700;48.222;16.342;2023-11-21T14:56:33;12.20;99.90
17170;DHT22;8700;48.222;16.342;2023-11-21T14:59:57;12.10;99.90
17170;DHT22;8700;48.222;16.342;2023-11-21T15:03:18;12.00;99.90
17170;DHT22;8700;48.222;16.342;2023-11-21T15:06:58;11.90;99.90
17170;DHT22;8700;48.222;16.342;2023-11-21T15:10:19;11.80;99.90
17170;DHT22;8700;48.222;16.342;2023-11-21T15:13:48;11.80;99.90
17170;DHT22;8700;48.222;16.342;2023-11-21T15:17:11;11.80;99.90
17170;DHT22;8700;48.222;16.342;2023-11-21T15:20:36;11.80;99.90
17170;DHT22;8700;48.222;16.342;2023-11-21T15:23:59;11.80;99.90
17170;DHT22;8700;48.222;16.342;2023-11-21T15:27:20;11.70;99.90
17170;DHT22;8700;48.222;16.342;2023-11-21T15:30:41;11.60;99.90
17170;DHT22;8700;48.222;16.342;2023-11-21T15:34:03;11.50;99.90
17170;DHT22;8700;48.222;16.342;2023-11-21T15:37:25;11.30;99.90
17170;DHT22;8700;48.222;16.342;2023-11-21T15:40:49;11.20;99.90
17170;DHT22;8700;48.222;16.342;2023-11-21T15:44:11;11.30;99.90
17170;DHT22;8700;48.222;16.342;2023-11-21T15:47:32;11.20;99.90
17170;DHT22;8700;48.222;16.342;2023-11-21T15:50:53;11.20;99.90
17170;DHT22;8700;48.222;16.342;2023-11-21T15:54:17;11.10;99.90
17170;DHT22;8700;48.222;16.342;2023-11-21T15:57:39;11.10;99.90
17170;DHT22;8700;48.222;16.342;2023-11-21T16:01:01;11.00;99.90
17170;DHT22;8700;48.222;16.342;2023-11-21T16:04:23;11.00;99.90
17170;DHT22;8700;48.222;16.342;2023-11-21T16:07:46;11.00;99.90
17170;DHT22;8700;48.222;16.342;2023-11-21T16:11:07;11.00;99.90
17170;DHT22;8700;48.222;16.342;2023-11-21T16:27:05;11.20;99.90
17170;DHT22;8700;48.222;16.342;2023-11-21T16:30:30;11.90;99.90
17170;DHT22;8700;48.222;16.342;2023-11-21T16:33:52;11.90;99.90
17170;DHT22;8700;48.222;16.342;2023-11-21T16:37:13;11.90;99.90
17170;DHT22;8700;48.222;16.342;2023-11-21T16:40:35;11.90;99.90
17170;DHT22;8700;48.222;16.342;2023-11-21T16:43:58;11.70;99.90
17170;DHT22;8700;48.222;16.342;2023-11-21T16:47:19;11.60;99.90
17170;DHT22;8700;48.222;16.342;2023-11-21T16:50:42;11.30;99.90
17170;DHT22;8700;48.222;16.342;2023-11-21T16:54:04;11.00;99.90
17170;DHT22;8700;48.222;16.342;2023-11-21T16:57:25;11.00;99.90
17170;DHT22;8700;48.222;16.342;2023-11-21T17:00:47;10.80;99.90
17170;DHT22;8700;48.222;16.342;2023-11-21T17:04:09;10.80;99.90
17170;DHT22;8700;48.222;16.342;2023-11-21T17:07:31;10.90;99.90
17170;DHT22;8700;48.222;16.342;2023-11-21T17:10:52;10.90;99.90
17170;DHT22;8700;48.222;16.342;2023-11-21T17:14:13;10.90;99.90
17170;DHT22;8700;48.222;16.342;2023-11-21T17:17:36;10.80;99.90
17170;DHT22;8700;48.222;16.342;2023-11-21T17:20:57;10.70;99.90
17170;DHT22;8700;48.222;16.342;2023-11-21T17:24:18;10.50;99.90
17170;DHT22;8700;48.222;16.342;2023-11-21T17:27:40;10.60;99.90
17170;DHT22;8700;48.222;16.342;2023-11-21T17:31:01;10.70;99.90
17170;DHT22;8700;48.222;16.342;2023-11-21T17:34:24;10.60;99.90
17170;DHT22;8700;48.222;16.342;2023-11-21T17:37:45;10.60;99.90
17170;DHT22;8700;48.222;16.342;2023-11-21T17:41:06;10.60;99.90
17170;DHT22;8700;48.222;16.342;2023-11-21T17:44:27;10.70;99.90
17170;DHT22;8700;48.222;16.342;2023-11-21T17:47:48;10.70;99.90
17170;DHT22;8700;48.222;16.342;2023-11-21T17:51:11;10.70;99.90
17170;DHT22;8700;48.222;16.342;2023-11-21T17:54:32;10.50;99.90
17170;DHT22;8700;48.222;16.342;2023-11-21T17:57:53;10.50;99.90
17170;DHT22;8700;48.222;16.342;2023-11-21T18:01:14;10.60;99.90
17170;DHT22;8700;48.222;16.342;2023-11-21T18:04:36;10.80;99.90
17170;DHT22;8700;48.222;16.342;2023-11-21T18:07:58;10.90;99.90
17170;DHT22;8700;48.222;16.342;2023-11-21T18:11:20;11.00;99.90
17170;DHT22;8700;48.222;16.342;2023-11-21T18:14:41;11.10;99.90
17170;DHT22;8700;48.222;16.342;2023-11-21T18:18:03;11.20;99.90
17170;DHT22;8700;48.222;16.342;2023-11-21T18:21:24;11.20;99.90
17170;DHT22;8700;48.222;16.342;2023-11-21T18:24:47;11.10;99.90
17170;DHT22;8700;48.222;16.342;2023-11-21T18:28:08;11.20;99.90
17170;DHT22;8700;48.222;16.342;2023-11-21T18:31:30;11.20;99.90
17170;DHT22;8700;48.222;16.342;2023-11-21T18:34:51;11.20;99.90
17170;DHT22;8700;48.222;16.342;2023-11-21T18:38:13;11.20;99.90
17170;DHT22;8700;48.222;16.342;2023-11-21T18:41:35;11.30;99.90
17170;DHT22;8700;48.222;16.342;2023-11-21T18:44:57;11.40;99.90
17170;DHT22;8700;48.222;16.342;2023-11-21T18:48:18;11.30;99.90
17170;DHT22;8700;48.222;16.342;2023-11-21T18:51:39;11.20;99.90
17170;DHT22;8700;48.222;16.342;2023-11-21T18:55:00;11.30;99.90
17170;DHT22;8700;48.222;16.342;2023-11-21T18:58:24;11.10;99.90
17170;DHT22;8700;48.222;16.342;2023-11-21T19:01:45;11.20;99.90
17170;DHT22;8700;48.222;16.342;2023-11-21T19:05:07;11.30;99.90
17170;DHT22;8700;48.222;16.342;2023-11-21T19:08:28;11.40;99.90
17170;DHT22;8700;48.222;16.342;2023-11-21T19:11:49;11.20;99.90
17170;DHT22;8700;48.222;16.342;2023-11-21T19:15:11;11.10;99.90
17170;DHT22;8700;48.222;16.342;2023-11-21T19:18:33;10.90;99.90
17170;DHT22;8700;48.222;16.342;2023-11-21T19:21:55;10.90;99.90
17170;DHT22;8700;48.222;16.342;2023-11-21T19:25:16;10.80;99.90
17170;DHT22;8700;48.222;16.342;2023-11-21T19:28:38;10.70;99.90
17170;DHT22;8700;48.222;16.342;2023-11-21T19:32:01;10.60;99.90
17170;DHT22;8700;48.222;16.342;2023-11-21T19:35:22;10.60;99.90
17170;DHT22;8700;48.222;16.342;2023-11-21T19:38:43;10.50;99.90
17170;DHT22;8700;48.222;16.342;2023-11-21T19:42:05;10.50;99.90
17170;DHT22;8700;48.222;16.342;2023-11-21T19:45:26;10.40;99.90
17170;DHT22;8700;48.222;16.342;2023-11-21T19:48:52;10.40;99.90
17170;DHT22;8700;48.222;16.342;2023-11-21T19:52:14;10.30;99.90
17170;DHT22;8700;48.222;16.342;2023-11-21T19:55:35;10.30;99.90
17170;DHT22;8700;48.222;16.342;2023-11-21T19:58:58;10.30;99.90
17170;DHT22;8700;48.222;16.342;2023-11-21T20:02:18;10.30;99.90
17170;DHT22;8700;48.222;16.342;2023-11-21T20:05:41;10.30;99.90
17170;DHT22;8700;48.222;16.342;2023-11-21T20:09:02;10.40;99.90
17170;DHT22;8700;48.222;16.342;2023-11-21T20:12:23;10.40;99.90
17170;DHT22;8700;48.222;16.342;2023-11-21T20:15:45;10.50;99.90
17170;DHT22;8700;48.222;16.342;2023-11-21T20:19:06;10.60;99.90
17170;DHT22;8700;48.222;16.342;2023-11-21T20:22:29;10.60;99.90
17170;DHT22;8700;48.222;16.342;2023-11-21T20:25:50;10.60;99.90
17170;DHT22;8700;48.222;16.342;2023-11-21T20:29:11;10.70;99.90
17170;DHT22;8700;48.222;16.342;2023-11-21T20:32:34;10.50;99.90
17170;DHT22;8700;48.222;16.342;2023-11-21T20:35:55;10.50;99.90
17170;DHT22;8700;48.222;16.342;2023-11-21T20:39:19;10.40;99.90
17170;DHT22;8700;48.222;16.342;2023-11-21T20:42:40;10.40;99.90
17170;DHT22;8700;48.222;16.342;2023-11-21T20:46:05;10.40;99.90
17170;DHT22;8700;48.222;16.342;2023-11-21T20:49:26;10.40;99.90
17170;DHT22;8700;48.222;16.342;2023-11-21T20:52:48;10.40;99.90
17170;DHT22;8700;48.222;16.342;2023-11-21T20:56:10;10.40;99.90
17170;DHT22;8700;48.222;16.342;2023-11-21T20:59:31;10.50;99.90
17170;DHT22;8700;48.222;16.342;2023-11-21T21:02:52;10.40;99.90
17170;DHT22;8700;48.222;16.342;2023-11-21T21:06:15;10.30;99.90
17170;DHT22;8700;48.222;16.342;2023-11-21T21:09:36;10.30;99.90
17170;DHT22;8700;48.222;16.342;2023-11-21T21:12:59;10.10;99.90
17170;DHT22;8700;48.222;16.342;2023-11-21T21:16:20;9.90;99.90
17170;DHT22;8700;48.222;16.342;2023-11-21T21:19:45;10.00;99.90
17170;DHT22;8700;48.222;16.342;2023-11-21T21:23:06;10.20;99.90
17170;DHT22;8700;48.222;16.342;2023-11-21T21:26:27;10.30;99.90
17170;DHT22;8700;48.222;16.342;2023-11-21T21:29:50;10.20;99.90
17170;DHT22;8700;48.222;16.342;2023-11-21T21:33:11;10.10;99.90